sensor_id;sensor_type;location;lat;lon;timestamp;P1;durP1;ratioP1;P2;durP2;ratioP2
67979;SDS011;54760;47.490;19.030;2024-02-14T00:00:34;4.37;;;2.62;;
67979;SDS011;54760;47.490;19.030;2024-02-14T00:02:59;5.47;;;2.80;;
67979;SDS011;54760;47.490;19.030;2024-02-14T00:05:25;3.80;;;2.72;;
67979;SDS011;54760;47.490;19.030;2024-02-14T00:07:51;6.22;;;2.97;;
67979;SDS011;54760;47.490;19.030;2024-02-14T00:10:16;4.28;;;3.10;;
67979;SDS011;54760;47.490;19.030;2024-02-14T00:12:42;3.72;;;2.67;;
67979;SDS011;54760;47.490;19.030;2024-02-14T00:15:07;5.72;;;3.00;;
67979;SDS011;54760;47.490;19.030;2024-02-14T00:17:33;4.20;;;2.40;;
67979;SDS011;54760;47.490;19.030;2024-02-14T00:20:00;5.35;;;3.03;;
67979;SDS011;54760;47.490;19.030;2024-02-14T00:22:28;3.97;;;2.70;;
67979;SDS011;54760;47.490;19.030;2024-02-14T00:24:54;6.43;;;2.80;;
67979;SDS011;54760;47.490;19.030;2024-02-14T00:27:19;5.05;;;3.00;;
67979;SDS011;54760;47.490;19.030;2024-02-14T00:29:45;4.50;;;2.85;;
67979;SDS011;54760;47.490;19.030;2024-02-14T00:32:12;4.93;;;2.70;;
67979;SDS011;54760;47.490;19.030;2024-02-14T00:34:38;4.90;;;2.90;;
67979;SDS011;54760;47.490;19.030;2024-02-14T00:37:03;4.03;;;2.83;;
67979;SDS011;54760;47.490;19.030;2024-02-14T00:39:29;4.53;;;2.90;;
67979;SDS011;54760;47.490;19.030;2024-02-14T00:41:54;5.07;;;2.72;;
67979;SDS011;54760;47.490;19.030;2024-02-14T00:44:21;5.78;;;2.72;;
67979;SDS011;54760;47.490;19.030;2024-02-14T00:46:46;4.00;;;2.55;;
67979;SDS011;54760;47.490;19.030;2024-02-14T00:49:13;3.83;;;2.83;;
67979;SDS011;54760;47.490;19.030;2024-02-14T00:51:38;4.93;;;2.75;;
67979;SDS011;54760;47.490;19.030;2024-02-14T00:54:04;5.65;;;2.72;;
67979;SDS011;54760;47.490;19.030;2024-02-14T00:56:30;4.47;;;2.70;;
67979;SDS011;54760;47.490;19.030;2024-02-14T00:58:55;4.18;;;2.80;;
67979;SDS011;54760;47.490;19.030;2024-02-14T01:01:21;5.12;;;2.80;;
67979;SDS011;54760;47.490;19.030;2024-02-14T01:03:47;5.68;;;2.83;;
67979;SDS011;54760;47.490;19.030;2024-02-14T01:06:12;3.75;;;2.80;;
67979;SDS011;54760;47.490;19.030;2024-02-14T01:08:39;4.00;;;2.80;;
67979;SDS011;54760;47.490;19.030;2024-02-14T01:11:06;4.07;;;2.65;;
67979;SDS011;54760;47.490;19.030;2024-02-14T01:13:32;5.40;;;3.17;;
67979;SDS011;54760;47.490;19.030;2024-02-14T01:15:57;6.10;;;3.37;;
67979;SDS011;54760;47.490;19.030;2024-02-14T01:18:22;5.65;;;3.22;;
67979;SDS011;54760;47.490;19.030;2024-02-14T01:20:48;5.97;;;3.28;;
67979;SDS011;54760;47.490;19.030;2024-02-14T01:23:13;7.18;;;3.12;;
67979;SDS011;54760;47.490;19.030;2024-02-14T01:25:38;4.90;;;3.30;;
67979;SDS011;54760;47.490;19.030;2024-02-14T01:28:04;4.47;;;3.10;;
67979;SDS011;54760;47.490;19.030;2024-02-14T01:30:30;4.65;;;3.03;;
67979;SDS011;54760;47.490;19.030;2024-02-14T01:32:55;4.35;;;2.80;;
67979;SDS011;54760;47.490;19.030;2024-02-14T01:35:21;5.30;;;3.10;;
67979;SDS011;54760;47.490;19.030;2024-02-14T01:37:46;4.78;;;3.20;;
67979;SDS011;54760;47.490;19.030;2024-02-14T01:40:12;4.10;;;2.87;;
67979;SDS011;54760;47.490;19.030;2024-02-14T01:42:37;4.12;;;2.85;;
67979;SDS011;54760;47.490;19.030;2024-02-14T01:45:03;5.55;;;3.00;;
67979;SDS011;54760;47.490;19.030;2024-02-14T01:47:29;4.93;;;3.15;;
67979;SDS011;54760;47.490;19.030;2024-02-14T01:49:57;4.20;;;3.10;;
67979;SDS011;54760;47.490;19.030;2024-02-14T01:52:23;4.20;;;2.83;;
67979;SDS011;54760;47.490;19.030;2024-02-14T01:54:49;6.50;;;2.60;;
67979;SDS011;54760;47.490;19.030;2024-02-14T01:57:15;5.53;;;3.03;;
67979;SDS011;54760;47.490;19.030;2024-02-14T01:59:41;6.87;;;3.00;;
67979;SDS011;54760;47.490;19.030;2024-02-14T02:02:06;3.55;;;2.42;;
67979;SDS011;54760;47.490;19.030;2024-02-14T02:04:32;3.22;;;2.50;;
67979;SDS011;54760;47.490;19.030;2024-02-14T02:06:58;4.68;;;2.53;;
67979;SDS011;54760;47.490;19.030;2024-02-14T02:09:24;3.25;;;2.55;;
67979;SDS011;54760;47.490;19.030;2024-02-14T02:11:50;4.68;;;2.62;;
67979;SDS011;54760;47.490;19.030;2024-02-14T02:14:16;5.05;;;2.10;;
67979;SDS011;54760;47.490;19.030;2024-02-14T02:16:42;4.60;;;2.40;;
67979;SDS011;54760;47.490;19.030;2024-02-14T02:19:08;5.62;;;2.58;;
67979;SDS011;54760;47.490;19.030;2024-02-14T02:21:34;4.72;;;2.62;;
67979;SDS011;54760;47.490;19.030;2024-02-14T02:24:03;4.05;;;2.40;;
67979;SDS011;54760;47.490;19.030;2024-02-14T02:26:29;3.65;;;2.55;;
67979;SDS011;54760;47.490;19.030;2024-02-14T02:28:55;6.62;;;2.50;;
67979;SDS011;54760;47.490;19.030;2024-02-14T02:31:20;4.60;;;2.60;;
67979;SDS011;54760;47.490;19.030;2024-02-14T02:33:46;3.45;;;2.50;;
67979;SDS011;54760;47.490;19.030;2024-02-14T02:36:12;3.65;;;2.62;;
67979;SDS011;54760;47.490;19.030;2024-02-14T02:38:37;4.57;;;2.30;;
67979;SDS011;54760;47.490;19.030;2024-02-14T02:41:03;4.93;;;2.60;;
67979;SDS011;54760;47.490;19.030;2024-02-14T02:43:31;4.65;;;3.15;;
67979;SDS011;54760;47.490;19.030;2024-02-14T02:45:58;4.37;;;2.67;;
67979;SDS011;54760;47.490;19.030;2024-02-14T02:48:23;3.85;;;2.50;;
67979;SDS011;54760;47.490;19.030;2024-02-14T02:50:49;8.50;;;2.80;;
67979;SDS011;54760;47.490;19.030;2024-02-14T02:53:15;4.72;;;3.05;;
67979;SDS011;54760;47.490;19.030;2024-02-14T02:55:41;6.45;;;3.47;;
67979;SDS011;54760;47.490;19.030;2024-02-14T02:58:07;7.45;;;3.00;;
67979;SDS011;54760;47.490;19.030;2024-02-14T03:00:32;4.95;;;2.55;;
67979;SDS011;54760;47.490;19.030;2024-02-14T03:02:58;5.45;;;2.87;;
67979;SDS011;54760;47.490;19.030;2024-02-14T03:05:24;4.10;;;2.97;;
67979;SDS011;54760;47.490;19.030;2024-02-14T03:07:49;5.70;;;2.80;;
67979;SDS011;54760;47.490;19.030;2024-02-14T03:10:16;6.20;;;2.78;;
67979;SDS011;54760;47.490;19.030;2024-02-14T03:12:49;3.72;;;2.35;;
67979;SDS011;54760;47.490;19.030;2024-02-14T03:15:14;3.37;;;2.47;;
67979;SDS011;54760;47.490;19.030;2024-02-14T03:17:41;5.47;;;2.70;;
67979;SDS011;54760;47.490;19.030;2024-02-14T03:20:07;3.85;;;2.40;;
67979;SDS011;54760;47.490;19.030;2024-02-14T03:22:42;4.32;;;2.72;;
67979;SDS011;54760;47.490;19.030;2024-02-14T03:25:12;5.55;;;3.12;;
67979;SDS011;54760;47.490;19.030;2024-02-14T03:27:44;4.10;;;3.03;;
67979;SDS011;54760;47.490;19.030;2024-02-14T03:30:16;5.68;;;3.10;;
67979;SDS011;54760;47.490;19.030;2024-02-14T03:32:42;5.00;;;2.97;;
67979;SDS011;54760;47.490;19.030;2024-02-14T03:35:08;4.68;;;2.90;;
67979;SDS011;54760;47.490;19.030;2024-02-14T03:37:36;7.15;;;3.12;;
67979;SDS011;54760;47.490;19.030;2024-02-14T03:40:04;6.28;;;3.10;;
67979;SDS011;54760;47.490;19.030;2024-02-14T03:42:30;4.30;;;2.92;;
67979;SDS011;54760;47.490;19.030;2024-02-14T03:44:55;4.82;;;3.00;;
67979;SDS011;54760;47.490;19.030;2024-02-14T03:47:27;5.75;;;3.20;;
67979;SDS011;54760;47.490;19.030;2024-02-14T03:49:54;5.05;;;3.05;;
67979;SDS011;54760;47.490;19.030;2024-02-14T03:52:19;5.85;;;3.22;;
67979;SDS011;54760;47.490;19.030;2024-02-14T03:54:45;5.18;;;3.20;;
67979;SDS011;54760;47.490;19.030;2024-02-14T03:57:11;5.25;;;3.28;;
67979;SDS011;54760;47.490;19.030;2024-02-14T03:59:37;4.45;;;3.17;;
67979;SDS011;54760;47.490;19.030;2024-02-14T04:02:06;4.50;;;3.30;;
67979;SDS011;54760;47.490;19.030;2024-02-14T04:04:36;5.00;;;3.20;;
67979;SDS011;54760;47.490;19.030;2024-02-14T04:07:02;8.40;;;3.95;;
67979;SDS011;54760;47.490;19.030;2024-02-14T04:09:28;6.55;;;3.65;;
67979;SDS011;54760;47.490;19.030;2024-02-14T04:11:53;8.85;;;3.90;;
67979;SDS011;54760;47.490;19.030;2024-02-14T04:14:18;5.97;;;3.45;;
67979;SDS011;54760;47.490;19.030;2024-02-14T04:16:44;6.93;;;3.90;;
67979;SDS011;54760;47.490;19.030;2024-02-14T04:19:09;4.80;;;3.45;;
67979;SDS011;54760;47.490;19.030;2024-02-14T04:21:36;5.87;;;3.67;;
67979;SDS011;54760;47.490;19.030;2024-02-14T04:24:03;5.57;;;3.67;;
67979;SDS011;54760;47.490;19.030;2024-02-14T04:26:28;6.37;;;3.97;;
67979;SDS011;54760;47.490;19.030;2024-02-14T04:28:54;5.57;;;3.67;;
67979;SDS011;54760;47.490;19.030;2024-02-14T04:31:19;7.85;;;4.03;;
67979;SDS011;54760;47.490;19.030;2024-02-14T04:33:45;6.57;;;4.22;;
67979;SDS011;54760;47.490;19.030;2024-02-14T04:36:16;6.72;;;3.83;;
67979;SDS011;54760;47.490;19.030;2024-02-14T04:38:43;9.25;;;3.92;;
67979;SDS011;54760;47.490;19.030;2024-02-14T04:41:09;6.18;;;4.28;;
67979;SDS011;54760;47.490;19.030;2024-02-14T04:43:35;6.70;;;4.53;;
67979;SDS011;54760;47.490;19.030;2024-02-14T04:46:01;8.68;;;4.25;;
67979;SDS011;54760;47.490;19.030;2024-02-14T04:48:26;8.55;;;4.85;;
67979;SDS011;54760;47.490;19.030;2024-02-14T04:50:52;10.65;;;5.45;;
67979;SDS011;54760;47.490;19.030;2024-02-14T04:53:18;11.27;;;5.12;;
67979;SDS011;54760;47.490;19.030;2024-02-14T04:55:45;6.80;;;4.80;;
67979;SDS011;54760;47.490;19.030;2024-02-14T04:58:10;8.57;;;5.20;;
67979;SDS011;54760;47.490;19.030;2024-02-14T05:00:36;13.25;;;5.32;;
67979;SDS011;54760;47.490;19.030;2024-02-14T05:03:01;9.82;;;5.15;;
67979;SDS011;54760;47.490;19.030;2024-02-14T05:05:26;8.57;;;5.43;;
67979;SDS011;54760;47.490;19.030;2024-02-14T05:07:53;7.95;;;5.05;;
67979;SDS011;54760;47.490;19.030;2024-02-14T05:10:18;8.60;;;5.40;;
67979;SDS011;54760;47.490;19.030;2024-02-14T05:12:44;6.50;;;4.82;;
67979;SDS011;54760;47.490;19.030;2024-02-14T05:15:09;7.90;;;4.82;;
67979;SDS011;54760;47.490;19.030;2024-02-14T05:17:37;7.47;;;4.72;;
67979;SDS011;54760;47.490;19.030;2024-02-14T05:20:03;8.77;;;5.30;;
67979;SDS011;54760;47.490;19.030;2024-02-14T05:22:33;13.48;;;5.35;;
67979;SDS011;54760;47.490;19.030;2024-02-14T05:25:01;14.35;;;5.90;;
67979;SDS011;54760;47.490;19.030;2024-02-14T05:27:26;12.10;;;5.53;;
67979;SDS011;54760;47.490;19.030;2024-02-14T05:29:52;15.23;;;6.20;;
67979;SDS011;54760;47.490;19.030;2024-02-14T05:32:17;15.63;;;6.45;;
67979;SDS011;54760;47.490;19.030;2024-02-14T05:34:42;14.63;;;6.28;;
67979;SDS011;54760;47.490;19.030;2024-02-14T05:37:08;19.77;;;6.93;;
67979;SDS011;54760;47.490;19.030;2024-02-14T05:39:33;12.27;;;5.75;;
67979;SDS011;54760;47.490;19.030;2024-02-14T05:41:59;14.18;;;5.68;;
67979;SDS011;54760;47.490;19.030;2024-02-14T05:44:24;11.43;;;6.28;;
67979;SDS011;54760;47.490;19.030;2024-02-14T05:46:52;14.05;;;5.93;;
67979;SDS011;54760;47.490;19.030;2024-02-14T05:49:17;15.50;;;5.75;;
67979;SDS011;54760;47.490;19.030;2024-02-14T05:51:43;10.55;;;5.68;;
67979;SDS011;54760;47.490;19.030;2024-02-14T05:54:08;12.30;;;5.97;;
67979;SDS011;54760;47.490;19.030;2024-02-14T05:56:34;13.15;;;6.10;;
67979;SDS011;54760;47.490;19.030;2024-02-14T05:58:59;12.10;;;5.50;;
67979;SDS011;54760;47.490;19.030;2024-02-14T06:01:25;11.60;;;5.53;;
67979;SDS011;54760;47.490;19.030;2024-02-14T06:03:50;15.32;;;5.65;;
67979;SDS011;54760;47.490;19.030;2024-02-14T06:06:16;12.65;;;5.78;;
67979;SDS011;54760;47.490;19.030;2024-02-14T06:08:41;14.38;;;6.20;;
67979;SDS011;54760;47.490;19.030;2024-02-14T06:11:06;15.32;;;6.32;;
67979;SDS011;54760;47.490;19.030;2024-02-14T06:13:33;16.00;;;7.57;;
67979;SDS011;54760;47.490;19.030;2024-02-14T06:15:58;9.50;;;6.03;;
67979;SDS011;54760;47.490;19.030;2024-02-14T06:18:24;15.13;;;6.18;;
67979;SDS011;54760;47.490;19.030;2024-02-14T06:20:49;10.25;;;6.62;;
67979;SDS011;54760;47.490;19.030;2024-02-14T06:23:15;17.25;;;6.35;;
67979;SDS011;54760;47.490;19.030;2024-02-14T06:25:40;12.35;;;5.90;;
67979;SDS011;54760;47.490;19.030;2024-02-14T06:28:06;14.70;;;6.53;;
67979;SDS011;54760;47.490;19.030;2024-02-14T06:30:31;9.73;;;5.82;;
67979;SDS011;54760;47.490;19.030;2024-02-14T06:32:57;10.52;;;5.95;;
67979;SDS011;54760;47.490;19.030;2024-02-14T06:35:25;11.45;;;5.60;;
67979;SDS011;54760;47.490;19.030;2024-02-14T06:37:51;10.30;;;5.40;;
67979;SDS011;54760;47.490;19.030;2024-02-14T06:40:16;12.55;;;6.18;;
67979;SDS011;54760;47.490;19.030;2024-02-14T06:42:42;12.90;;;6.05;;
67979;SDS011;54760;47.490;19.030;2024-02-14T06:45:08;13.20;;;6.28;;
67979;SDS011;54760;47.490;19.030;2024-02-14T06:47:34;12.57;;;6.65;;
67979;SDS011;54760;47.490;19.030;2024-02-14T06:49:59;10.57;;;5.93;;
67979;SDS011;54760;47.490;19.030;2024-02-14T06:52:24;12.40;;;6.12;;
67979;SDS011;54760;47.490;19.030;2024-02-14T06:54:50;8.80;;;5.32;;
67979;SDS011;54760;47.490;19.030;2024-02-14T06:57:15;11.27;;;6.53;;
67979;SDS011;54760;47.490;19.030;2024-02-14T06:59:41;10.20;;;5.95;;
67979;SDS011;54760;47.490;19.030;2024-02-14T07:02:07;10.85;;;6.03;;
67979;SDS011;54760;47.490;19.030;2024-02-14T07:04:32;11.95;;;6.15;;
67979;SDS011;54760;47.490;19.030;2024-02-14T07:06:58;10.05;;;6.32;;
67979;SDS011;54760;47.490;19.030;2024-02-14T07:09:23;14.35;;;6.40;;
67979;SDS011;54760;47.490;19.030;2024-02-14T07:11:50;13.90;;;6.25;;
67979;SDS011;54760;47.490;19.030;2024-02-14T07:14:16;10.52;;;6.37;;
67979;SDS011;54760;47.490;19.030;2024-02-14T07:16:41;15.15;;;6.50;;
67979;SDS011;54760;47.490;19.030;2024-02-14T07:19:06;8.88;;;5.18;;
67979;SDS011;54760;47.490;19.030;2024-02-14T07:21:32;11.02;;;5.87;;
67979;SDS011;54760;47.490;19.030;2024-02-14T07:23:58;9.43;;;6.05;;
67979;SDS011;54760;47.490;19.030;2024-02-14T07:26:23;10.88;;;6.05;;
67979;SDS011;54760;47.490;19.030;2024-02-14T07:28:49;8.05;;;5.62;;
67979;SDS011;54760;47.490;19.030;2024-02-14T07:31:14;9.07;;;6.03;;
67979;SDS011;54760;47.490;19.030;2024-02-14T07:33:39;10.88;;;6.22;;
67979;SDS011;54760;47.490;19.030;2024-02-14T07:36:05;10.20;;;6.05;;
67979;SDS011;54760;47.490;19.030;2024-02-14T07:38:31;10.27;;;6.60;;
67979;SDS011;54760;47.490;19.030;2024-02-14T07:40:56;10.23;;;6.07;;
67979;SDS011;54760;47.490;19.030;2024-02-14T07:43:22;11.00;;;5.87;;
67979;SDS011;54760;47.490;19.030;2024-02-14T07:45:47;13.07;;;6.05;;
67979;SDS011;54760;47.490;19.030;2024-02-14T07:48:13;11.60;;;5.68;;
67979;SDS011;54760;47.490;19.030;2024-02-14T07:50:39;9.75;;;5.55;;
67979;SDS011;54760;47.490;19.030;2024-02-14T07:53:04;8.95;;;5.35;;
67979;SDS011;54760;47.490;19.030;2024-02-14T07:55:31;13.18;;;6.93;;
67979;SDS011;54760;47.490;19.030;2024-02-14T07:57:56;13.77;;;6.20;;
67979;SDS011;54760;47.490;19.030;2024-02-14T08:00:22;9.60;;;6.05;;
67979;SDS011;54760;47.490;19.030;2024-02-14T08:02:48;10.60;;;6.30;;
67979;SDS011;54760;47.490;19.030;2024-02-14T08:05:14;11.02;;;6.85;;
67979;SDS011;54760;47.490;19.030;2024-02-14T08:07:39;15.23;;;7.18;;
67979;SDS011;54760;47.490;19.030;2024-02-14T08:10:05;9.98;;;6.55;;
67979;SDS011;54760;47.490;19.030;2024-02-14T08:12:30;11.88;;;7.10;;
67979;SDS011;54760;47.490;19.030;2024-02-14T08:14:56;15.25;;;7.90;;
67979;SDS011;54760;47.490;19.030;2024-02-14T08:17:21;11.35;;;7.15;;
67979;SDS011;54760;47.490;19.030;2024-02-14T08:19:46;12.68;;;7.50;;
67979;SDS011;54760;47.490;19.030;2024-02-14T08:22:13;10.95;;;7.43;;
67979;SDS011;54760;47.490;19.030;2024-02-14T08:24:38;14.15;;;7.95;;
67979;SDS011;54760;47.490;19.030;2024-02-14T08:27:04;17.75;;;7.72;;
67979;SDS011;54760;47.490;19.030;2024-02-14T08:29:32;15.20;;;7.47;;
67979;SDS011;54760;47.490;19.030;2024-02-14T08:31:57;10.57;;;7.03;;
67979;SDS011;54760;47.490;19.030;2024-02-14T08:34:23;13.77;;;6.80;;
67979;SDS011;54760;47.490;19.030;2024-02-14T08:36:49;9.65;;;6.40;;
67979;SDS011;54760;47.490;19.030;2024-02-14T08:39:14;9.77;;;6.65;;
67979;SDS011;54760;47.490;19.030;2024-02-14T08:41:39;10.25;;;6.65;;
67979;SDS011;54760;47.490;19.030;2024-02-14T08:44:08;9.68;;;6.37;;
67979;SDS011;54760;47.490;19.030;2024-02-14T08:46:34;8.38;;;5.00;;
67979;SDS011;54760;47.490;19.030;2024-02-14T08:49:00;11.02;;;5.15;;
67979;SDS011;54760;47.490;19.030;2024-02-14T08:51:27;7.78;;;4.45;;
67979;SDS011;54760;47.490;19.030;2024-02-14T08:53:53;7.62;;;4.57;;
67979;SDS011;54760;47.490;19.030;2024-02-14T08:56:20;7.50;;;4.53;;
67979;SDS011;54760;47.490;19.030;2024-02-14T08:58:47;7.30;;;3.55;;
67979;SDS011;54760;47.490;19.030;2024-02-14T09:01:13;6.97;;;4.28;;
67979;SDS011;54760;47.490;19.030;2024-02-14T09:03:39;5.62;;;3.70;;
67979;SDS011;54760;47.490;19.030;2024-02-14T09:06:04;7.65;;;4.12;;
67979;SDS011;54760;47.490;19.030;2024-02-14T09:08:30;9.82;;;4.10;;
67979;SDS011;54760;47.490;19.030;2024-02-14T09:10:56;7.00;;;4.10;;
67979;SDS011;54760;47.490;19.030;2024-02-14T09:13:23;6.72;;;4.05;;
67979;SDS011;54760;47.490;19.030;2024-02-14T09:15:49;8.85;;;3.70;;
67979;SDS011;54760;47.490;19.030;2024-02-14T09:18:16;6.90;;;4.03;;
67979;SDS011;54760;47.490;19.030;2024-02-14T09:20:43;7.55;;;3.72;;
67979;SDS011;54760;47.490;19.030;2024-02-14T09:23:11;7.50;;;3.62;;
67979;SDS011;54760;47.490;19.030;2024-02-14T09:25:36;7.25;;;3.70;;
67979;SDS011;54760;47.490;19.030;2024-02-14T09:28:02;9.18;;;3.50;;
67979;SDS011;54760;47.490;19.030;2024-02-14T09:30:27;5.50;;;3.80;;
67979;SDS011;54760;47.490;19.030;2024-02-14T09:32:53;7.82;;;3.70;;
67979;SDS011;54760;47.490;19.030;2024-02-14T09:35:18;3.67;;;2.72;;
67979;SDS011;54760;47.490;19.030;2024-02-14T09:37:44;5.20;;;2.83;;
67979;SDS011;54760;47.490;19.030;2024-02-14T09:40:09;5.60;;;2.80;;
67979;SDS011;54760;47.490;19.030;2024-02-14T09:42:38;5.72;;;2.87;;
67979;SDS011;54760;47.490;19.030;2024-02-14T09:45:10;6.70;;;2.97;;
67979;SDS011;54760;47.490;19.030;2024-02-14T09:47:36;10.00;;;3.40;;
67979;SDS011;54760;47.490;19.030;2024-02-14T09:50:04;4.60;;;2.70;;
67979;SDS011;54760;47.490;19.030;2024-02-14T09:52:32;4.40;;;2.62;;
67979;SDS011;54760;47.490;19.030;2024-02-14T09:54:58;5.28;;;3.30;;
67979;SDS011;54760;47.490;19.030;2024-02-14T09:57:24;5.05;;;3.35;;
67979;SDS011;54760;47.490;19.030;2024-02-14T09:59:51;6.12;;;3.50;;
67979;SDS011;54760;47.490;19.030;2024-02-14T10:02:18;9.90;;;3.62;;
67979;SDS011;54760;47.490;19.030;2024-02-14T10:04:44;8.65;;;3.58;;
67979;SDS011;54760;47.490;19.030;2024-02-14T10:07:09;4.62;;;3.40;;
67979;SDS011;54760;47.490;19.030;2024-02-14T10:09:41;8.45;;;3.05;;
67979;SDS011;54760;47.490;19.030;2024-02-14T10:12:07;3.87;;;2.80;;
67979;SDS011;54760;47.490;19.030;2024-02-14T10:14:36;4.30;;;2.40;;
67979;SDS011;54760;47.490;19.030;2024-02-14T10:17:03;4.57;;;3.03;;
67979;SDS011;54760;47.490;19.030;2024-02-14T10:19:29;5.95;;;3.05;;
67979;SDS011;54760;47.490;19.030;2024-02-14T10:21:58;3.22;;;2.00;;
67979;SDS011;54760;47.490;19.030;2024-02-14T10:24:25;3.55;;;2.00;;
67979;SDS011;54760;47.490;19.030;2024-02-14T10:26:51;4.90;;;2.33;;
67979;SDS011;54760;47.490;19.030;2024-02-14T10:29:18;5.22;;;2.15;;
67979;SDS011;54760;47.490;19.030;2024-02-14T10:31:45;3.53;;;2.05;;
67979;SDS011;54760;47.490;19.030;2024-02-14T10:34:11;3.78;;;2.03;;
67979;SDS011;54760;47.490;19.030;2024-02-14T10:36:37;5.50;;;2.30;;
67979;SDS011;54760;47.490;19.030;2024-02-14T10:39:05;4.47;;;2.30;;
67979;SDS011;54760;47.490;19.030;2024-02-14T10:41:32;3.33;;;2.30;;
67979;SDS011;54760;47.490;19.030;2024-02-14T10:44:03;2.60;;;2.00;;
67979;SDS011;54760;47.490;19.030;2024-02-14T10:46:32;9.95;;;2.70;;
67979;SDS011;54760;47.490;19.030;2024-02-14T10:49:02;5.95;;;3.70;;
67979;SDS011;54760;47.490;19.030;2024-02-14T10:51:30;4.68;;;2.37;;
67979;SDS011;54760;47.490;19.030;2024-02-14T10:53:58;6.72;;;2.30;;
67979;SDS011;54760;47.490;19.030;2024-02-14T10:56:25;6.12;;;2.62;;
67979;SDS011;54760;47.490;19.030;2024-02-14T10:58:55;5.80;;;2.67;;
67979;SDS011;54760;47.490;19.030;2024-02-14T11:01:28;5.75;;;2.35;;
67979;SDS011;54760;47.490;19.030;2024-02-14T11:03:58;3.53;;;2.40;;
67979;SDS011;54760;47.490;19.030;2024-02-14T11:06:24;5.80;;;2.83;;
67979;SDS011;54760;47.490;19.030;2024-02-14T11:08:56;5.00;;;2.95;;
67979;SDS011;54760;47.490;19.030;2024-02-14T11:11:22;6.32;;;3.28;;
67979;SDS011;54760;47.490;19.030;2024-02-14T11:13:52;4.90;;;2.78;;
67979;SDS011;54760;47.490;19.030;2024-02-14T11:16:18;4.10;;;3.60;;
67979;SDS011;54760;47.490;19.030;2024-02-14T11:18:47;6.80;;;3.85;;
67979;SDS011;54760;47.490;19.030;2024-02-14T11:21:16;7.20;;;3.70;;
67979;SDS011;54760;47.490;19.030;2024-02-14T11:23:52;7.60;;;3.75;;
67979;SDS011;54760;47.490;19.030;2024-02-14T11:26:18;5.47;;;3.45;;
67979;SDS011;54760;47.490;19.030;2024-02-14T11:28:43;4.60;;;3.72;;
67979;SDS011;54760;47.490;19.030;2024-02-14T11:31:10;6.28;;;3.50;;
67979;SDS011;54760;47.490;19.030;2024-02-14T11:33:35;5.70;;;3.95;;
67979;SDS011;54760;47.490;19.030;2024-02-14T11:36:07;7.65;;;3.78;;
67979;SDS011;54760;47.490;19.030;2024-02-14T11:38:36;10.00;;;3.35;;
67979;SDS011;54760;47.490;19.030;2024-02-14T11:41:01;7.20;;;3.20;;
67979;SDS011;54760;47.490;19.030;2024-02-14T11:43:28;4.78;;;3.15;;
67979;SDS011;54760;47.490;19.030;2024-02-14T11:45:54;4.18;;;3.10;;
67979;SDS011;54760;47.490;19.030;2024-02-14T11:48:20;3.67;;;2.80;;
67979;SDS011;54760;47.490;19.030;2024-02-14T11:50:46;5.03;;;2.35;;
67979;SDS011;54760;47.490;19.030;2024-02-14T11:53:13;5.57;;;2.80;;
67979;SDS011;54760;47.490;19.030;2024-02-14T11:55:44;6.35;;;2.55;;
67979;SDS011;54760;47.490;19.030;2024-02-14T11:58:11;5.78;;;2.40;;
67979;SDS011;54760;47.490;19.030;2024-02-14T12:00:41;3.90;;;2.33;;
67979;SDS011;54760;47.490;19.030;2024-02-14T12:03:11;6.20;;;2.22;;
67979;SDS011;54760;47.490;19.030;2024-02-14T12:05:38;4.45;;;2.78;;
67979;SDS011;54760;47.490;19.030;2024-02-14T12:08:05;4.55;;;2.17;;
67979;SDS011;54760;47.490;19.030;2024-02-14T12:10:32;7.68;;;2.40;;
67979;SDS011;54760;47.490;19.030;2024-02-14T12:12:57;4.15;;;2.50;;
67979;SDS011;54760;47.490;19.030;2024-02-14T12:15:25;6.43;;;1.75;;
67979;SDS011;54760;47.490;19.030;2024-02-14T12:17:52;6.00;;;2.15;;
67979;SDS011;54760;47.490;19.030;2024-02-14T12:20:21;3.17;;;1.98;;
67979;SDS011;54760;47.490;19.030;2024-02-14T12:22:51;3.35;;;1.75;;
67979;SDS011;54760;47.490;19.030;2024-02-14T12:25:16;8.55;;;2.25;;
67979;SDS011;54760;47.490;19.030;2024-02-14T12:27:42;5.45;;;2.20;;
67979;SDS011;54760;47.490;19.030;2024-02-14T12:30:07;7.37;;;2.47;;
67979;SDS011;54760;47.490;19.030;2024-02-14T12:32:33;4.55;;;2.08;;
67979;SDS011;54760;47.490;19.030;2024-02-14T12:34:58;4.15;;;2.22;;
67979;SDS011;54760;47.490;19.030;2024-02-14T12:37:25;4.25;;;2.20;;
67979;SDS011;54760;47.490;19.030;2024-02-14T12:39:50;4.00;;;2.20;;
67979;SDS011;54760;47.490;19.030;2024-02-14T12:42:16;5.82;;;1.80;;
67979;SDS011;54760;47.490;19.030;2024-02-14T12:44:43;5.90;;;2.00;;
67979;SDS011;54760;47.490;19.030;2024-02-14T12:47:09;6.75;;;1.98;;
67979;SDS011;54760;47.490;19.030;2024-02-14T12:49:34;3.20;;;1.77;;
67979;SDS011;54760;47.490;19.030;2024-02-14T12:52:00;4.37;;;2.00;;
67979;SDS011;54760;47.490;19.030;2024-02-14T12:54:25;5.12;;;2.10;;
67979;SDS011;54760;47.490;19.030;2024-02-14T12:56:51;5.75;;;2.20;;
67979;SDS011;54760;47.490;19.030;2024-02-14T12:59:17;5.18;;;2.33;;
67979;SDS011;54760;47.490;19.030;2024-02-14T13:01:43;5.50;;;2.33;;
67979;SDS011;54760;47.490;19.030;2024-02-14T13:04:09;5.05;;;2.37;;
67979;SDS011;54760;47.490;19.030;2024-02-14T13:06:35;8.60;;;2.70;;
67979;SDS011;54760;47.490;19.030;2024-02-14T13:09:02;3.80;;;2.30;;
67979;SDS011;54760;47.490;19.030;2024-02-14T13:11:30;7.82;;;2.42;;
67979;SDS011;54760;47.490;19.030;2024-02-14T13:13:56;5.47;;;2.50;;
67979;SDS011;54760;47.490;19.030;2024-02-14T13:16:22;4.25;;;2.70;;
67979;SDS011;54760;47.490;19.030;2024-02-14T13:18:47;4.95;;;2.45;;
67979;SDS011;54760;47.490;19.030;2024-02-14T13:21:13;3.75;;;2.58;;
67979;SDS011;54760;47.490;19.030;2024-02-14T13:23:38;7.12;;;2.97;;
67979;SDS011;54760;47.490;19.030;2024-02-14T13:26:05;4.68;;;2.78;;
67979;SDS011;54760;47.490;19.030;2024-02-14T13:28:32;7.07;;;3.22;;
67979;SDS011;54760;47.490;19.030;2024-02-14T13:30:58;7.90;;;3.47;;
67979;SDS011;54760;47.490;19.030;2024-02-14T13:33:23;6.85;;;3.45;;
67979;SDS011;54760;47.490;19.030;2024-02-14T13:35:49;5.68;;;3.60;;
67979;SDS011;54760;47.490;19.030;2024-02-14T13:38:14;5.60;;;3.30;;
67979;SDS011;54760;47.490;19.030;2024-02-14T13:40:40;7.43;;;3.40;;
67979;SDS011;54760;47.490;19.030;2024-02-14T13:43:06;6.80;;;3.30;;
67979;SDS011;54760;47.490;19.030;2024-02-14T13:45:44;6.90;;;3.60;;
67979;SDS011;54760;47.490;19.030;2024-02-14T13:48:10;7.45;;;3.50;;
67979;SDS011;54760;47.490;19.030;2024-02-14T13:50:38;9.50;;;3.42;;
67979;SDS011;54760;47.490;19.030;2024-02-14T13:53:06;8.45;;;3.65;;
67979;SDS011;54760;47.490;19.030;2024-02-14T13:55:32;6.57;;;3.42;;
67979;SDS011;54760;47.490;19.030;2024-02-14T13:57:57;10.10;;;3.85;;
67979;SDS011;54760;47.490;19.030;2024-02-14T14:00:23;8.18;;;3.40;;
67979;SDS011;54760;47.490;19.030;2024-02-14T14:02:48;4.60;;;3.42;;
67979;SDS011;54760;47.490;19.030;2024-02-14T14:05:13;5.95;;;3.75;;
67979;SDS011;54760;47.490;19.030;2024-02-14T14:07:39;7.15;;;3.95;;
67979;SDS011;54760;47.490;19.030;2024-02-14T14:10:05;5.50;;;3.60;;
67979;SDS011;54760;47.490;19.030;2024-02-14T14:12:32;8.23;;;4.30;;
67979;SDS011;54760;47.490;19.030;2024-02-14T14:14:58;10.15;;;3.87;;
67979;SDS011;54760;47.490;19.030;2024-02-14T14:17:23;8.02;;;3.92;;
67979;SDS011;54760;47.490;19.030;2024-02-14T14:19:49;5.35;;;3.62;;
67979;SDS011;54760;47.490;19.030;2024-02-14T14:22:15;6.43;;;3.85;;
67979;SDS011;54760;47.490;19.030;2024-02-14T14:24:41;5.47;;;3.85;;